createdAt,value
2019-02-08T00:03:46.459Z,63.43
2019-02-08T00:08:51.937Z,64.03
2019-02-08T00:13:57.409Z,64.05
2019-02-08T00:19:03.269Z,64.08
2019-02-08T00:24:08.623Z,64.40
2019-02-08T00:29:14.106Z,64.13
2019-02-08T00:34:19.646Z,64.26
2019-02-08T00:39:25.219Z,64.32
2019-02-08T00:44:30.988Z,64.44
2019-02-08T00:49:36.767Z,64.45
2019-02-08T00:54:42.311Z,64.81
2019-02-08T00:59:48.289Z,64.99
2019-02-08T01:04:53.760Z,65.12
2019-02-08T01:09:59.831Z,65.13
2019-02-08T01:15:08.351Z,65.57
2019-02-08T01:20:17.219Z,65.56
2019-02-08T01:25:25.106Z,65.73
2019-02-08T01:30:32.216Z,66.14
2019-02-08T01:35:38.183Z,66.18
2019-02-08T01:40:43.543Z,66.27
2019-02-08T01:45:48.913Z,66.28
2019-02-08T01:50:54.468Z,66.50
2019-02-08T01:56:00.233Z,66.50
2019-02-08T02:01:06.511Z,66.47
2019-02-08T02:06:11.875Z,66.43
2019-02-08T02:11:17.448Z,66.44
2019-02-08T02:16:23.158Z,66.56
2019-02-08T02:21:28.678Z,66.65
2019-02-08T02:26:34.197Z,66.72
2019-02-08T02:31:39.789Z,66.74
2019-02-08T02:36:45.057Z,66.73
2019-02-08T02:41:50.414Z,66.71
2019-02-08T02:46:55.762Z,66.89
2019-02-08T02:52:01.071Z,66.91
2019-02-08T02:57:07.197Z,66.86
2019-02-08T03:02:12.563Z,67.10
2019-02-08T03:07:17.923Z,67.21
2019-02-08T03:12:23.277Z,67.13
2019-02-08T03:17:28.646Z,67.13
2019-02-08T03:22:34.105Z,66.98
2019-02-08T03:27:39.351Z,67.16
2019-02-08T03:32:45.021Z,67.43
2019-02-08T03:37:50.700Z,67.45
2019-02-08T03:42:56.209Z,67.42
2019-02-08T03:48:01.606Z,67.53
2019-02-08T03:53:08.311Z,67.75
2019-02-08T03:58:14.270Z,68.02
2019-02-08T04:03:20.960Z,68.04
2019-02-08T04:08:26.715Z,68.47
2019-02-08T04:13:32.232Z,68.57
2019-02-08T04:18:37.798Z,68.77
2019-02-08T04:23:42.991Z,69.15
2019-02-08T04:28:48.366Z,69.31
2019-02-08T04:33:53.736Z,69.68
2019-02-08T04:38:59.289Z,69.74
2019-02-08T04:44:05.363Z,69.92
2019-02-08T04:49:10.837Z,70.10
2019-02-08T04:54:16.418Z,70.22
2019-02-08T04:59:21.760Z,70.51
2019-02-08T05:04:27.211Z,70.73
2019-02-08T05:09:33.122Z,70.77
2019-02-08T05:14:38.724Z,70.95
2019-02-08T05:19:44.435Z,71.21
2019-02-08T05:24:49.780Z,71.45
2019-02-08T05:29:55.187Z,71.54
2019-02-08T05:35:00.836Z,71.80
2019-02-08T05:40:12.588Z,71.88
2019-02-08T05:45:23.150Z,72.16
2019-02-08T05:50:29.722Z,72.29
2019-02-08T05:55:35.463Z,72.37
2019-02-08T06:00:47.669Z,72.52
2019-02-08T06:05:53.196Z,72.54
2019-02-08T06:10:59.090Z,72.67
2019-02-08T06:16:06.382Z,72.69
2019-02-08T06:21:12.097Z,72.76
2019-02-08T06:26:17.615Z,72.73
2019-02-08T06:31:22.837Z,72.83
2019-02-08T06:36:28.238Z,72.71
2019-02-08T06:41:33.706Z,72.54
2019-02-08T06:46:39.213Z,72.38
2019-02-08T06:51:44.526Z,72.35
2019-02-08T06:56:51.563Z,72.40
2019-02-08T07:02:14.647Z,72.46
2019-02-08T07:07:27.393Z,72.57
2019-02-08T07:12:43.028Z,72.54
2019-02-08T07:17:52.816Z,72.28
2019-02-08T07:23:15.354Z,72.44
2019-02-08T07:28:31.464Z,72.44
2019-02-08T07:33:38.486Z,72.59
2019-02-08T07:38:51.923Z,72.52
2019-02-08T07:44:17.234Z,72.37
2019-02-08T07:49:31.888Z,72.24
2019-02-08T07:54:39.125Z,72.13
2019-02-08T07:59:46.902Z,72.05
2019-02-08T08:04:54.033Z,71.71
2019-02-08T08:10:08.061Z,71.50
2019-02-08T08:15:17.851Z,71.62
2019-02-08T08:20:31.723Z,71.34
2019-02-08T08:25:44.146Z,71.07
2019-02-08T08:30:54.833Z,70.65
2019-02-08T08:36:06.121Z,70.39
2019-02-08T08:41:30.866Z,70.31
2019-02-08T08:46:45.263Z,70.28
2019-02-08T08:52:05.584Z,69.98
2019-02-08T08:57:40.623Z,69.89
2019-02-08T09:03:08.350Z,69.78
2019-02-08T09:08:31.630Z,69.48
2019-02-08T09:13:51.853Z,68.74
2019-02-08T09:19:14.946Z,68.37
2019-02-08T09:24:23.440Z,67.64
2019-02-08T09:29:49.895Z,67.45
2019-02-08T09:35:07.242Z,67.32
2019-02-08T09:40:32.576Z,67.03
2019-02-08T09:46:04.454Z,66.89
2019-02-08T09:51:28.035Z,66.91
2019-02-08T09:56:39.438Z,66.73
2019-02-08T10:02:13.055Z,66.67
2019-02-08T10:07:40.727Z,67.53
2019-02-08T10:13:05.548Z,67.30
2019-02-08T10:18:30.885Z,67.43
2019-02-08T10:23:47.358Z,67.17
2019-02-08T10:29:20.116Z,66.59
2019-02-08T10:34:46.558Z,66.49
2019-02-08T10:40:16.104Z,66.64
2019-02-08T10:45:58.108Z,66.07
2019-02-08T10:51:30.504Z,65.33
2019-02-08T10:56:58.269Z,64.93
2019-02-08T11:02:40.126Z,64.85
2019-02-08T11:08:04.907Z,63.66
2019-02-08T11:13:37.614Z,63.13
2019-02-08T11:19:21.699Z,62.54
2019-02-08T11:24:27.215Z,62.75
2019-02-08T11:29:33.013Z,62.49
2019-02-08T11:34:38.455Z,62.30
2019-02-08T11:39:44.121Z,62.37
2019-02-08T11:44:49.579Z,62.06
2019-02-08T11:49:54.805Z,62.00
2019-02-08T11:55:00.301Z,62.22
2019-02-08T12:00:27.901Z,61.67
2019-02-08T12:05:33.264Z,62.10
2019-02-08T12:10:38.595Z,62.48
2019-02-08T12:15:44.494Z,62.59
2019-02-08T12:20:49.919Z,62.09
2019-02-08T12:25:55.806Z,61.86
2019-02-08T12:31:01.274Z,62.10
2019-02-08T12:36:06.937Z,61.69
2019-02-08T12:41:13.002Z,61.67
2019-02-08T12:46:18.681Z,61.09
2019-02-08T12:51:24.241Z,60.29
2019-02-08T12:56:29.707Z,59.85
2019-02-08T13:01:37.773Z,60.31
2019-02-08T13:06:42.185Z,60.41
2019-02-08T13:11:48.093Z,60.10
2019-02-08T13:16:53.533Z,60.07
2019-02-08T13:21:58.870Z,60.07
2019-02-08T13:27:04.863Z,60.41
2019-02-08T13:32:10.375Z,60.29
2019-02-08T13:37:15.731Z,60.24
2019-02-08T13:42:21.196Z,60.31
2019-02-08T13:47:26.558Z,60.77
2019-02-08T13:52:31.684Z,60.26
2019-02-08T13:57:36.998Z,60.10
2019-02-08T14:02:42.773Z,59.77
2019-02-08T14:07:47.927Z,60.00
2019-02-08T14:12:53.397Z,60.35
2019-02-08T14:17:58.928Z,60.81
2019-02-08T14:23:05.388Z,61.04
2019-02-08T14:28:10.670Z,61.31
2019-02-08T14:33:16.011Z,61.38
2019-02-08T14:38:21.984Z,61.47
2019-02-08T14:43:27.348Z,61.77
2019-02-08T14:48:32.712Z,61.58
2019-02-08T14:53:38.187Z,61.94
2019-02-08T14:58:43.433Z,62.84
2019-02-08T15:03:48.895Z,63.60
2019-02-08T15:08:54.030Z,64.25
2019-02-08T15:13:59.445Z,64.57
2019-02-08T15:19:05.732Z,64.76
2019-02-08T15:24:11.238Z,64.86
2019-02-08T15:29:16.607Z,64.82
2019-02-08T15:34:22.069Z,64.92
2019-02-08T15:39:27.550Z,65.31
2019-02-08T15:44:32.983Z,65.63
2019-02-08T15:49:39.062Z,66.24
2019-02-08T15:54:44.420Z,66.75
2019-02-08T15:59:49.887Z,66.72
2019-02-08T16:04:55.522Z,67.11
2019-02-08T16:10:00.785Z,67.41
2019-02-08T16:15:14.762Z,67.64
2019-02-08T16:20:22.708Z,67.65
2019-02-08T16:25:30.603Z,67.32
2019-02-08T16:30:42.311Z,67.37
2019-02-08T16:35:47.770Z,67.05
2019-02-08T16:40:53.343Z,67.00
2019-02-08T16:45:58.702Z,66.84
2019-02-08T16:51:05.743Z,66.72
2019-02-08T16:56:11.184Z,66.70
2019-02-08T17:01:16.510Z,66.75
2019-02-08T17:06:22.089Z,66.52
2019-02-08T17:11:27.616Z,66.81
2019-02-08T17:16:32.884Z,66.62
2019-02-08T17:21:38.248Z,66.70
2019-02-08T17:26:43.604Z,66.88
2019-02-08T17:31:49.062Z,66.82
2019-02-08T17:36:54.320Z,66.88
2019-02-08T17:41:59.561Z,66.88
2019-02-08T17:47:05.150Z,67.00
2019-02-08T17:52:10.812Z,67.10
2019-02-08T17:57:16.476Z,67.30
2019-02-08T18:02:21.924Z,67.50
2019-02-08T18:07:27.223Z,67.46
2019-02-08T18:12:32.707Z,67.37
2019-02-08T18:17:38.012Z,67.29
2019-02-08T18:22:43.472Z,67.56
2019-02-08T18:27:48.940Z,67.14
2019-02-08T18:32:54.501Z,67.35
2019-02-08T18:37:59.853Z,67.54
2019-02-08T18:43:05.835Z,67.70
2019-02-08T18:48:11.295Z,67.91
2019-02-08T18:53:16.698Z,67.91
2019-02-08T18:58:22.527Z,68.26
2019-02-08T19:03:28.077Z,68.26
2019-02-08T19:08:33.548Z,68.35
2019-02-08T19:13:39.298Z,68.57
2019-02-08T19:18:44.702Z,69.05
2019-02-08T19:23:49.935Z,69.35
2019-02-08T19:28:55.518Z,69.69
2019-02-08T19:34:01.880Z,70.34
2019-02-08T19:39:08.666Z,70.13
2019-02-08T19:44:14.133Z,70.23
2019-02-08T19:49:19.670Z,70.14
2019-02-08T19:54:24.933Z,70.45
2019-02-08T19:59:30.303Z,70.57
2019-02-08T20:04:35.986Z,70.80
2019-02-08T20:09:41.235Z,70.67
2019-02-08T20:14:46.882Z,70.80
2019-02-08T20:19:52.452Z,70.95
2019-02-08T20:24:57.927Z,71.00
2019-02-08T20:30:03.278Z,70.71
2019-02-08T20:35:11.704Z,70.72
2019-02-08T20:40:19.644Z,70.73
2019-02-08T20:45:27.068Z,70.61
2019-02-08T20:50:32.395Z,70.80
2019-02-08T20:55:39.137Z,70.80
2019-02-08T21:00:50.274Z,70.66
2019-02-08T21:05:55.956Z,70.28
2019-02-08T21:11:01.405Z,70.28
2019-02-08T21:16:06.868Z,70.25
2019-02-08T21:21:12.639Z,70.14
2019-02-08T21:26:18.192Z,70.18
2019-02-08T21:31:23.786Z,69.98
2019-02-08T21:36:29.220Z,69.78
2019-02-08T21:41:34.664Z,70.08
2019-02-08T21:46:40.065Z,70.18
2019-02-08T21:51:45.499Z,70.35
2019-02-08T21:56:51.065Z,70.60
2019-02-08T22:01:56.922Z,70.32
2019-02-08T22:07:02.510Z,70.79
2019-02-08T22:12:07.760Z,70.84
2019-02-08T22:17:13.124Z,70.77
2019-02-08T22:22:18.670Z,70.76
2019-02-08T22:27:23.920Z,70.96
2019-02-08T22:32:29.478Z,71.04
2019-02-08T22:37:35.270Z,71.35
2019-02-08T22:42:40.727Z,71.37
2019-02-08T22:47:46.150Z,71.23
2019-02-08T22:52:51.275Z,71.32
2019-02-08T22:57:56.928Z,71.22
2019-02-08T23:03:02.477Z,71.04
2019-02-08T23:08:10.584Z,71.19
2019-02-08T23:13:17.072Z,71.51
2019-02-08T23:18:22.537Z,71.46
2019-02-08T23:23:28.103Z,71.52
2019-02-08T23:28:33.565Z,71.62
2019-02-08T23:33:39.111Z,71.61
2019-02-08T23:38:44.593Z,71.40
2019-02-08T23:43:50.440Z,71.26
2019-02-08T23:48:55.821Z,71.05
2019-02-08T23:54:01.389Z,70.94
2019-02-08T23:59:06.741Z,70.53
